createdAt,value
2022-12-04T00:02:23.989Z,20.33
2022-12-04T00:05:11.421Z,20.67
2022-12-04T00:07:58.835Z,22.00
2022-12-04T00:10:46.247Z,23.13
2022-12-04T00:13:34.170Z,22.90
2022-12-04T00:16:23.119Z,23.83
2022-12-04T00:19:10.804Z,22.93
2022-12-04T00:21:58.178Z,22.50
2022-12-04T00:24:45.560Z,24.00
2022-12-04T00:27:32.948Z,23.57
2022-12-04T00:30:20.353Z,25.63
2022-12-04T00:33:07.702Z,22.53
2022-12-04T00:36:03.073Z,23.70
2022-12-04T00:38:51.111Z,23.47
2022-12-04T00:41:39.399Z,23.33
2022-12-04T00:44:27.208Z,23.17
2022-12-04T00:47:14.584Z,24.00
2022-12-04T00:50:02.077Z,23.80
2022-12-04T00:52:49.642Z,22.70
2022-12-04T00:55:40.482Z,23.33
2022-12-04T00:58:27.868Z,22.87
2022-12-04T01:01:16.920Z,22.10
2022-12-04T01:04:04.401Z,23.47
2022-12-04T01:06:51.785Z,22.67
2022-12-04T01:09:39.193Z,22.90
2022-12-04T01:12:26.540Z,23.27
2022-12-04T01:15:13.963Z,21.57
2022-12-04T01:18:01.380Z,22.50
2022-12-04T01:20:49.805Z,22.10
2022-12-04T01:23:37.239Z,22.30
2022-12-04T01:26:25.034Z,21.50
2022-12-04T01:29:12.517Z,22.40
2022-12-04T01:32:00.176Z,24.00
2022-12-04T01:34:50.105Z,23.47
2022-12-04T01:37:37.661Z,22.37
2022-12-04T01:40:25.003Z,22.73
2022-12-04T01:43:13.636Z,22.33
2022-12-04T01:46:01.935Z,22.07
2022-12-04T01:48:53.514Z,23.73
2022-12-04T01:51:42.178Z,23.97
2022-12-04T01:54:31.756Z,23.60
2022-12-04T01:57:20.520Z,22.70
2022-12-04T02:00:12.674Z,24.60
2022-12-04T02:03:00.186Z,23.20
2022-12-04T02:05:47.640Z,22.93
2022-12-04T02:08:35.663Z,22.43
2022-12-04T02:11:23.054Z,23.20
2022-12-04T02:14:22.330Z,21.87
2022-12-04T02:17:29.894Z,21.27
2022-12-04T02:20:33.584Z,22.53
2022-12-04T02:23:20.940Z,21.80
2022-12-04T02:26:08.339Z,22.23
2022-12-04T02:28:59.161Z,23.43
2022-12-04T02:32:03.198Z,23.10
2022-12-04T02:34:59.847Z,21.83
2022-12-04T02:37:48.681Z,20.93
2022-12-04T02:40:42.275Z,22.53
2022-12-04T02:43:55.850Z,21.70
2022-12-04T02:46:45.570Z,20.83
2022-12-04T02:49:35.399Z,22.23
2022-12-04T02:52:25.191Z,22.97
2022-12-04T02:55:15.176Z,22.73
2022-12-04T02:58:05.761Z,21.77
2022-12-04T03:00:54.750Z,22.67
2022-12-04T03:03:42.198Z,21.43
2022-12-04T03:06:31.697Z,22.27
2022-12-04T03:09:21.704Z,23.77
2022-12-04T03:12:15.814Z,23.40
2022-12-04T03:15:06.132Z,24.13
2022-12-04T03:17:59.246Z,22.60
2022-12-04T03:20:48.842Z,21.70
2022-12-04T03:23:40.327Z,21.33
2022-12-04T03:26:30.458Z,21.83
2022-12-04T03:29:30.110Z,23.33
2022-12-04T03:32:24.495Z,23.17
2022-12-04T03:35:34.001Z,22.30
2022-12-04T03:38:41.627Z,22.43
2022-12-04T03:41:37.602Z,22.00
2022-12-04T03:44:31.170Z,23.57
2022-12-04T03:47:21.270Z,23.87
2022-12-04T03:50:11.806Z,22.77
2022-12-04T03:53:09.164Z,23.53
2022-12-04T03:56:04.002Z,23.47
2022-12-04T03:58:53.406Z,22.93
2022-12-04T04:01:43.460Z,24.50
2022-12-04T04:04:36.602Z,23.87
2022-12-04T04:07:35.054Z,23.03
2022-12-04T04:10:25.408Z,22.93
2022-12-04T04:13:33.997Z,23.23
2022-12-04T04:16:41.043Z,22.07
2022-12-04T04:19:49.080Z,23.83
2022-12-04T04:22:56.336Z,25.53
2022-12-04T04:25:44.409Z,22.67
2022-12-04T04:28:34.819Z,24.70
2022-12-04T04:31:27.497Z,23.83
2022-12-04T04:34:33.560Z,24.87
2022-12-04T04:37:27.011Z,24.23
2022-12-04T04:40:19.676Z,23.50
2022-12-04T04:43:25.914Z,24.33
2022-12-04T04:46:23.614Z,22.47
2022-12-04T04:49:11.934Z,23.40
2022-12-04T04:51:59.541Z,23.40
2022-12-04T04:54:47.755Z,24.43
2022-12-04T04:57:36.626Z,24.47
2022-12-04T05:00:24.207Z,24.77
2022-12-04T05:03:18.674Z,23.60
2022-12-04T05:06:06.596Z,24.13
2022-12-04T05:08:53.939Z,27.20
2022-12-04T05:11:41.330Z,25.00
2022-12-04T05:14:28.676Z,25.37
2022-12-04T05:17:16.381Z,24.77
2022-12-04T05:20:04.916Z,26.20
2022-12-04T05:22:52.252Z,24.27
2022-12-04T05:25:39.607Z,24.10
2022-12-04T05:28:27.657Z,23.90
2022-12-04T05:31:15.113Z,25.17
2022-12-04T05:34:02.509Z,25.87
2022-12-04T05:36:49.858Z,25.20
2022-12-04T05:39:37.303Z,25.93
2022-12-04T05:42:24.678Z,24.77
2022-12-04T05:45:12.637Z,24.33
2022-12-04T05:47:59.990Z,24.87
2022-12-04T05:50:47.402Z,25.47
2022-12-04T05:53:34.903Z,24.03
2022-12-04T05:56:22.324Z,24.87
2022-12-04T05:59:09.855Z,25.00
2022-12-04T06:01:57.326Z,24.93
2022-12-04T06:04:44.980Z,24.20
2022-12-04T06:07:32.416Z,27.00
2022-12-04T06:10:19.843Z,24.00
2022-12-04T06:13:07.766Z,23.93
2022-12-04T06:15:55.264Z,24.83
2022-12-04T06:18:42.996Z,24.83
2022-12-04T06:21:31.789Z,25.17
2022-12-04T06:24:23.285Z,24.33
2022-12-04T06:27:26.731Z,24.70
2022-12-04T06:30:15.233Z,26.73
2022-12-04T06:33:02.575Z,26.10
2022-12-04T06:35:57.925Z,26.00
2022-12-04T06:38:45.942Z,25.43
2022-12-04T06:41:33.344Z,26.70
2022-12-04T06:44:20.708Z,26.37
2022-12-04T06:47:08.747Z,26.47
2022-12-04T06:49:56.435Z,26.53
2022-12-04T06:52:43.855Z,26.03
2022-12-04T06:55:31.231Z,26.77
2022-12-04T06:58:18.623Z,25.63
2022-12-04T07:01:10.391Z,24.90
2022-12-04T07:03:58.363Z,27.10
2022-12-04T07:06:45.694Z,23.93
2022-12-04T07:09:33.112Z,25.77
2022-12-04T07:12:20.493Z,26.20
2022-12-04T07:15:08.081Z,26.93
2022-12-04T07:17:55.484Z,25.43
2022-12-04T07:20:42.811Z,26.20
2022-12-04T07:23:30.288Z,25.63
2022-12-04T07:26:17.663Z,25.50
2022-12-04T07:29:05.079Z,26.27
2022-12-04T07:31:52.534Z,27.53
2022-12-04T07:34:39.926Z,25.03
2022-12-04T07:37:27.294Z,26.30
2022-12-04T07:40:15.059Z,27.57
2022-12-04T07:43:02.415Z,24.63
2022-12-04T07:45:49.842Z,26.63
2022-12-04T07:48:37.203Z,26.57
2022-12-04T07:51:26.123Z,27.40
2022-12-04T07:54:13.562Z,26.50
2022-12-04T07:57:00.931Z,26.40
2022-12-04T07:59:48.309Z,25.77
2022-12-04T08:02:35.643Z,24.57
2022-12-04T08:05:23.060Z,28.30
2022-12-04T08:08:10.549Z,28.50
2022-12-04T08:10:57.993Z,26.53
2022-12-04T08:13:46.037Z,26.60
2022-12-04T08:16:33.789Z,27.47
2022-12-04T08:19:21.715Z,27.13
2022-12-04T08:22:09.181Z,24.67
2022-12-04T08:24:56.873Z,26.20
2022-12-04T08:27:47.633Z,27.07
2022-12-04T08:30:35.844Z,27.40
2022-12-04T08:33:23.264Z,26.43
2022-12-04T08:36:11.883Z,26.60
2022-12-04T08:38:59.418Z,27.43
2022-12-04T08:41:52.374Z,24.87
2022-12-04T08:44:44.010Z,26.20
2022-12-04T08:47:34.736Z,25.57
2022-12-04T08:50:23.577Z,26.87
2022-12-04T08:53:11.765Z,26.30
2022-12-04T08:56:04.161Z,27.53
2022-12-04T08:58:54.531Z,26.03
2022-12-04T09:01:43.397Z,24.53
2022-12-04T09:04:32.200Z,25.77
2022-12-04T09:07:20.776Z,27.10
2022-12-04T09:10:09.507Z,25.00
2022-12-04T09:13:00.303Z,26.03
2022-12-04T09:15:50.352Z,26.57
2022-12-04T09:18:42.824Z,25.57
2022-12-04T09:21:32.104Z,27.93
2022-12-04T09:24:21.446Z,24.97
2022-12-04T09:27:14.758Z,27.30
2022-12-04T09:30:03.700Z,27.23
2022-12-04T09:32:53.117Z,27.00
2022-12-04T09:35:41.661Z,26.90
2022-12-04T09:38:33.522Z,26.27
2022-12-04T09:41:25.402Z,26.23
2022-12-04T09:44:20.224Z,28.70
2022-12-04T09:47:17.886Z,26.20
2022-12-04T09:50:19.033Z,26.10
2022-12-04T09:53:10.626Z,25.03
2022-12-04T09:56:08.573Z,28.10
2022-12-04T09:59:19.617Z,27.10
2022-12-04T10:02:20.826Z,27.47
2022-12-04T10:05:17.736Z,27.27
2022-12-04T10:08:09.340Z,28.80
2022-12-04T10:10:58.788Z,28.97
2022-12-04T10:14:11.912Z,28.13
2022-12-04T10:17:15.498Z,27.17
2022-12-04T10:20:10.695Z,27.43
2022-12-04T10:23:14.492Z,27.73
2022-12-04T10:26:04.275Z,28.23
2022-12-04T10:28:55.538Z,27.63
2022-12-04T10:31:45.553Z,25.43
2022-12-04T10:34:34.670Z,27.17
2022-12-04T10:37:23.642Z,25.23
2022-12-04T10:40:19.393Z,28.40
2022-12-04T10:43:20.984Z,27.53
2022-12-04T10:46:14.562Z,25.43
2022-12-04T10:49:03.842Z,25.50
2022-12-04T10:51:52.375Z,26.53
2022-12-04T10:54:45.630Z,26.57
2022-12-04T10:57:38.754Z,26.43
2022-12-04T11:00:29.372Z,26.17
2022-12-04T11:03:28.657Z,24.60
2022-12-04T11:06:17.417Z,26.00
2022-12-04T11:09:06.138Z,24.73
2022-12-04T11:11:55.511Z,24.93
2022-12-04T11:14:46.957Z,25.50
2022-12-04T11:17:36.973Z,23.40
2022-12-04T11:20:26.945Z,25.47
2022-12-04T11:23:16.166Z,25.10
2022-12-04T11:26:06.399Z,24.80
2022-12-04T11:28:55.834Z,23.27
2022-12-04T11:31:49.515Z,24.80
2022-12-04T11:34:40.890Z,23.23
2022-12-04T11:37:33.093Z,23.13
2022-12-04T11:40:22.512Z,24.07
2022-12-04T11:43:17.997Z,23.70
2022-12-04T11:46:12.985Z,22.90
2022-12-04T11:49:04.694Z,22.27
2022-12-04T11:52:05.690Z,23.93
2022-12-04T11:55:13.162Z,22.60
2022-12-04T11:58:05.333Z,21.77
2022-12-04T12:01:06.880Z,23.70
2022-12-04T12:03:55.275Z,22.87
2022-12-04T12:07:05.065Z,23.13
2022-12-04T12:09:57.357Z,22.30
2022-12-04T12:12:58.588Z,22.20
2022-12-04T12:16:26.597Z,21.57
2022-12-04T12:19:15.271Z,23.07
2022-12-04T12:22:16.389Z,21.73
2022-12-04T12:25:23.226Z,21.03
2022-12-04T12:28:12.222Z,20.93
2022-12-04T12:31:32.635Z,22.07
2022-12-04T12:34:36.346Z,20.43
2022-12-04T12:37:31.007Z,19.87
2022-12-04T12:40:28.122Z,19.73
2022-12-04T12:43:31.963Z,18.53
2022-12-04T12:46:49.557Z,20.27
2022-12-04T12:49:50.724Z,20.17
2022-12-04T12:53:08.067Z,19.20
2022-12-04T12:55:59.050Z,20.80
2022-12-04T12:58:57.629Z,20.13
2022-12-04T13:01:58.742Z,20.53
2022-12-04T13:04:53.339Z,19.97
2022-12-04T13:07:47.074Z,22.07
2022-12-04T13:10:44.620Z,21.20
2022-12-04T13:13:35.056Z,20.67
2022-12-04T13:16:36.379Z,21.10
2022-12-04T13:19:27.037Z,19.23
2022-12-04T13:22:31.973Z,20.23
2022-12-04T13:25:24.132Z,20.67
2022-12-04T13:28:20.301Z,19.60
2022-12-04T13:31:19.067Z,20.60
2022-12-04T13:34:24.452Z,20.43
2022-12-04T13:37:24.155Z,19.97
2022-12-04T13:40:33.039Z,20.20
2022-12-04T13:43:33.078Z,20.37
2022-12-04T13:46:26.800Z,21.93
2022-12-04T13:49:31.100Z,22.13
2022-12-04T13:52:24.268Z,21.00
2022-12-04T13:55:26.254Z,20.73
2022-12-04T13:58:15.232Z,22.33
2022-12-04T14:01:02.807Z,23.47
2022-12-04T14:03:52.542Z,22.30
2022-12-04T14:06:42.777Z,21.90
2022-12-04T14:09:30.135Z,21.77
2022-12-04T14:12:17.995Z,20.43
2022-12-04T14:15:09.495Z,21.20
2022-12-04T14:18:16.556Z,25.73
2022-12-04T14:21:05.657Z,23.77
2022-12-04T14:23:53.944Z,25.27
2022-12-04T14:27:10.586Z,24.37
2022-12-04T14:29:57.580Z,30.33
2022-12-04T14:32:46.840Z,24.10
2022-12-04T14:35:34.313Z,23.40
2022-12-04T14:38:22.944Z,25.23
2022-12-04T14:41:10.307Z,27.17
2022-12-04T14:43:57.970Z,36.00
2022-12-04T14:46:46.870Z,31.57
2022-12-04T14:49:53.080Z,24.43
2022-12-04T14:52:50.756Z,32.07
2022-12-04T14:55:57.654Z,31.57
2022-12-04T14:58:45.350Z,25.73
2022-12-04T15:01:38.306Z,23.83
2022-12-04T15:04:28.439Z,26.67
2022-12-04T15:07:20.223Z,26.93
2022-12-04T15:10:37.558Z,27.73
2022-12-04T15:13:32.322Z,26.67
2022-12-04T15:16:20.976Z,25.30
2022-12-04T15:19:21.191Z,24.40
2022-12-04T15:22:21.780Z,22.70
2022-12-04T15:25:16.985Z,23.77
2022-12-04T15:28:09.354Z,23.70
2022-12-04T15:30:57.426Z,25.17
2022-12-04T15:33:45.654Z,25.17
2022-12-04T15:36:47.582Z,23.97
2022-12-04T15:39:37.834Z,23.97
2022-12-04T15:42:25.217Z,22.97
2022-12-04T15:45:12.700Z,22.77
2022-12-04T15:48:00.135Z,23.03
2022-12-04T15:50:56.132Z,21.50
2022-12-04T15:53:46.157Z,24.30
2022-12-04T15:56:33.125Z,22.43
2022-12-04T15:59:20.221Z,23.33
2022-12-04T16:02:31.583Z,22.37
2022-12-04T16:05:21.526Z,21.77
2022-12-04T16:08:28.887Z,23.23
2022-12-04T16:11:21.984Z,21.80
2022-12-04T16:14:08.892Z,21.97
2022-12-04T16:17:05.542Z,20.77
2022-12-04T16:19:53.691Z,19.97
2022-12-04T16:22:42.189Z,20.93
2022-12-04T16:25:32.555Z,18.97
2022-12-04T16:28:19.568Z,22.13
2022-12-04T16:31:06.834Z,22.47
2022-12-04T16:33:53.965Z,21.83
2022-12-04T16:36:41.403Z,21.03
2022-12-04T16:39:28.361Z,18.37
2022-12-04T16:42:27.371Z,20.30
2022-12-04T16:45:20.707Z,20.80
2022-12-04T16:48:07.894Z,21.23
2022-12-04T16:50:54.854Z,21.63
2022-12-04T16:53:41.845Z,20.73
2022-12-04T16:56:28.768Z,21.90
2022-12-04T16:59:15.791Z,18.50
2022-12-04T17:02:06.263Z,22.53
2022-12-04T17:04:57.483Z,19.80
2022-12-04T17:07:45.277Z,20.07
2022-12-04T17:10:32.330Z,19.20
2022-12-04T17:13:20.771Z,20.07
2022-12-04T17:16:07.987Z,22.00
2022-12-04T17:18:55.131Z,18.93
2022-12-04T17:21:42.153Z,20.13
2022-12-04T17:24:29.074Z,18.40
2022-12-04T17:27:15.994Z,20.27
2022-12-04T17:30:04.563Z,20.57
2022-12-04T17:32:51.851Z,20.00
2022-12-04T17:35:42.599Z,20.70
2022-12-04T17:38:29.578Z,20.60
2022-12-04T17:41:16.731Z,21.77
2022-12-04T17:44:04.216Z,21.60
2022-12-04T17:46:51.272Z,19.07
2022-12-04T17:49:38.630Z,19.20
2022-12-04T17:52:25.623Z,19.43
2022-12-04T17:55:13.291Z,19.37
2022-12-04T17:58:00.223Z,19.40
2022-12-04T18:00:47.257Z,19.53
2022-12-04T18:03:34.861Z,18.17
2022-12-04T18:06:24.944Z,19.47
2022-12-04T18:09:14.711Z,18.93
2022-12-04T18:12:02.015Z,17.87
2022-12-04T18:14:49.300Z,18.80
2022-12-04T18:17:37.339Z,19.93
2022-12-04T18:20:24.244Z,18.40
2022-12-04T18:23:11.218Z,22.30
2022-12-04T18:25:59.826Z,22.63
2022-12-04T18:28:47.833Z,20.47
2022-12-04T18:31:34.803Z,20.10
2022-12-04T18:34:22.615Z,19.50
2022-12-04T18:37:10.008Z,21.00
2022-12-04T18:39:59.120Z,21.07
2022-12-04T18:42:49.220Z,20.73
2022-12-04T18:45:36.231Z,22.07
2022-12-04T18:48:23.191Z,20.00
2022-12-04T18:51:20.470Z,19.53
2022-12-04T18:54:11.597Z,23.93
2022-12-04T18:56:58.605Z,19.37
2022-12-04T18:59:45.538Z,21.90
2022-12-04T19:02:32.510Z,20.17
2022-12-04T19:05:19.644Z,21.37
2022-12-04T19:08:06.694Z,19.23
2022-12-04T19:10:53.669Z,18.73
2022-12-04T19:13:41.108Z,18.70
2022-12-04T19:16:28.658Z,19.07
2022-12-04T19:19:15.793Z,18.07
2022-12-04T19:22:03.873Z,18.87
2022-12-04T19:24:50.872Z,17.10
2022-12-04T19:27:37.943Z,19.30
2022-12-04T19:30:24.964Z,17.30
2022-12-04T19:33:11.947Z,19.10
2022-12-04T19:36:02.016Z,17.63
2022-12-04T19:38:49.409Z,18.80
2022-12-04T19:41:38.500Z,17.83
2022-12-04T19:44:47.917Z,18.27
2022-12-04T19:47:32.609Z,18.60
2022-12-04T19:50:19.510Z,18.83
2022-12-04T19:53:06.431Z,20.50
2022-12-04T19:55:53.339Z,18.60
2022-12-04T19:58:40.602Z,20.27
2022-12-04T20:01:29.751Z,18.70
2022-12-04T20:04:16.861Z,19.43
2022-12-04T20:07:03.982Z,19.10
2022-12-04T20:09:52.650Z,18.43
2022-12-04T20:12:39.780Z,17.70
2022-12-04T20:15:27.003Z,19.40
2022-12-04T20:18:13.946Z,19.17
2022-12-04T20:21:01.951Z,19.73
2022-12-04T20:23:50.608Z,18.97
2022-12-04T20:26:39.017Z,19.73
2022-12-04T20:29:25.999Z,19.47
2022-12-04T20:32:13.100Z,19.83
2022-12-04T20:35:00.066Z,21.40
2022-12-04T20:37:47.028Z,20.57
2022-12-04T20:40:34.723Z,22.20
2022-12-04T20:43:21.658Z,21.00
2022-12-04T20:46:19.251Z,23.60
2022-12-04T20:49:08.706Z,20.60
2022-12-04T20:51:55.698Z,21.37
2022-12-04T20:54:42.630Z,22.33
2022-12-04T20:57:33.100Z,20.63
2022-12-04T21:00:20.130Z,21.83
2022-12-04T21:03:07.176Z,21.63
2022-12-04T21:05:54.566Z,21.00
2022-12-04T21:08:54.118Z,20.47
2022-12-04T21:11:44.123Z,21.37
2022-12-04T21:14:51.463Z,20.13
2022-12-04T21:17:39.020Z,20.30
2022-12-04T21:20:25.962Z,20.33
2022-12-04T21:23:12.925Z,21.17
2022-12-04T21:25:59.819Z,21.30
2022-12-04T21:28:47.330Z,21.37
2022-12-04T21:31:35.898Z,20.10
2022-12-04T21:34:22.921Z,21.50
2022-12-04T21:37:10.355Z,20.93
2022-12-04T21:39:59.410Z,19.87
2022-12-04T21:42:46.605Z,20.80
2022-12-04T21:45:33.570Z,19.77
2022-12-04T21:48:20.454Z,20.60
2022-12-04T21:51:16.885Z,20.80
2022-12-04T21:54:08.568Z,20.67
2022-12-04T21:56:56.233Z,21.87
2022-12-04T21:59:43.441Z,21.17
2022-12-04T22:02:30.399Z,19.40
2022-12-04T22:05:17.437Z,21.33
2022-12-04T22:08:04.775Z,21.13
2022-12-04T22:10:51.854Z,19.53
2022-12-04T22:13:39.453Z,18.90
2022-12-04T22:16:30.390Z,21.87
2022-12-04T22:19:18.337Z,19.40
2022-12-04T22:22:05.289Z,18.97
2022-12-04T22:24:52.575Z,19.10
2022-12-04T22:27:39.619Z,19.77
2022-12-04T22:30:28.265Z,17.80
2022-12-04T22:33:15.763Z,18.50
2022-12-04T22:36:05.520Z,19.80
2022-12-04T22:39:10.440Z,17.67
2022-12-04T22:41:58.048Z,17.83
2022-12-04T22:44:45.201Z,17.97
2022-12-04T22:47:32.450Z,18.00
2022-12-04T22:50:19.461Z,18.77
2022-12-04T22:53:06.410Z,17.47
2022-12-04T22:55:53.631Z,17.20
2022-12-04T22:58:41.220Z,18.60
2022-12-04T23:01:31.043Z,16.00
2022-12-04T23:04:19.204Z,18.30
2022-12-04T23:07:06.147Z,16.40
2022-12-04T23:09:53.085Z,16.53
2022-12-04T23:12:40.028Z,16.33
2022-12-04T23:15:26.953Z,17.70
2022-12-04T23:18:14.510Z,16.87
2022-12-04T23:21:04.138Z,17.93
2022-12-04T23:23:53.177Z,17.13
2022-12-04T23:26:43.828Z,17.30
2022-12-04T23:32:37.794Z,17.07
2022-12-04T23:35:24.779Z,17.73
2022-12-04T23:38:11.794Z,18.17
2022-12-04T23:41:03.580Z,17.93
2022-12-04T23:43:51.854Z,17.60
2022-12-04T23:46:38.844Z,17.53
2022-12-04T23:49:25.846Z,17.30
2022-12-04T23:52:12.833Z,17.77
2022-12-04T23:54:59.751Z,17.17
2022-12-04T23:57:46.676Z,17.53
